Time;durP1;ratioP1;P1;durP2;ratioP2;P2;SDS_P1;SDS_P2;PMS_P1;PMS_P2;Temp;Humidity;BMP_temperature;BMP_pressure;BME280_temperature;BME280_humidity;BME280_pressure;Samples;Min_cycle;Max_cycle;Signal;HPM_P1;HPM_P2
2024/01/01 00:01:43;;;;;;;5.35;4.95;;;;;;;8.39;88.37;98796.13;6043251;23;20167;-71
2024/01/01 00:04:10;;;;;;;7.28;5.28;;;;;;;8.44;87.82;98781.91;6021981;23;20064;-71
2024/01/01 00:06:36;;;;;;;4.70;4.40;;;;;;;7.99;87.05;98699.75;6058701;23;20014;-71
2024/01/01 00:09:03;;;;;;;13.30;5.60;;;;;;;8.48;86.92;98759.81;6028080;23;20027;-71
2024/01/01 00:11:30;;;;;;;4.72;4.32;;;;;;;8.33;85.98;98709.50;6054395;23;20033;-73
2024/01/01 00:13:57;;;;;;;13.55;4.50;;;;;;;8.34;85.59;98709.41;6049915;23;20093;-72
2024/01/01 00:16:23;;;;;;;4.47;4.10;;;;;;;8.26;85.61;98703.06;6004434;23;20473;-72
2024/01/01 00:18:51;;;;;;;4.93;4.45;;;;;;;8.11;85.29;98660.63;6020360;23;20035;-71
2024/01/01 00:21:18;;;;;;;7.78;4.22;;;;;;;8.29;85.53;98701.06;6044544;23;20445;-71
2024/01/01 00:23:44;;;;;;;4.07;3.88;;;;;;;8.20;86.25;98712.22;5998874;23;20036;-71
2024/01/01 00:26:11;;;;;;;4.20;3.97;;;;;;;8.09;85.88;98696.50;6053633;23;20014;-72
2024/01/01 00:28:37;;;;;;;6.28;5.85;;;;;;;7.96;86.17;98693.97;6010775;23;20512;-72
2024/01/01 00:31:04;;;;;;;5.60;5.20;;;;;;;8.12;86.50;98727.63;6042931;23;20025;-71
2024/01/01 00:33:30;;;;;;;4.20;3.90;;;;;;;8.24;85.37;98736.31;6044195;23;20042;-70
2024/01/01 00:35:57;;;;;;;4.47;4.18;;;;;;;8.19;84.84;98723.59;6048670;23;20551;-73
2024/01/01 00:38:24;;;;;;;4.18;3.80;;;;;;;7.96;84.95;98670.44;6017999;23;20411;-72
2024/01/01 00:40:50;;;;;;;11.20;3.85;;;;;;;8.28;85.36;98732.53;6055981;23;20041;-72
2024/01/01 00:43:17;;;;;;;4.40;4.10;;;;;;;8.13;84.41;98675.22;6012844;23;20022;-73
2024/01/01 00:45:43;;;;;;;3.88;3.67;;;;;;;8.25;83.90;98685.72;6052160;23;20032;-73
2024/01/01 00:48:16;;;;;;;5.97;4.03;;;;;;;8.07;83.99;98672.25;6023333;23;20016;-71
2024/01/01 00:50:44;;;;;;;3.75;3.50;;;;;;;7.73;82.99;98585.97;6047832;23;20029;-71
2024/01/01 00:53:11;;;;;;;4.68;4.47;;;;;;;8.34;84.25;98708.56;6050792;23;20528;-72
2024/01/01 00:55:38;;;;;;;5.72;3.97;;;;;;;8.37;83.06;98703.91;6030692;23;20035;-72
2024/01/01 00:58:06;;;;;;;4.03;3.72;;;;;;;7.17;82.94;98521.34;6054334;23;20027;-72
2024/01/01 01:00:33;;;;;;;3.90;3.70;;;;;;;7.86;83.18;98615.44;6058186;23;20074;-72
2024/01/01 01:03:00;;;;;;;4.07;3.88;;;;;;;8.28;82.96;98688.94;6055836;23;20033;-72
2024/01/01 01:05:26;;;;;;;6.88;3.95;;;;;;;8.32;83.00;98689.56;6058721;23;20456;-73
2024/01/01 01:07:53;;;;;;;8.23;3.95;;;;;;;7.97;82.30;98612.84;6054564;23;20034;-71
2024/01/01 01:10:19;;;;;;;3.65;3.45;;;;;;;8.33;82.15;98673.75;6056963;23;20441;-72
2024/01/01 01:12:46;;;;;;;9.70;3.50;;;;;;;8.37;81.78;98646.41;6056388;23;20191;-72
2024/01/01 01:15:12;;;;;;;4.97;4.70;;;;;;;8.34;81.66;98657.13;6023294;23;20034;-71
2024/01/01 01:17:39;;;;;;;3.83;3.63;;;;;;;8.35;81.45;98655.34;6054776;23;20033;-72
2024/01/01 01:20:06;;;;;;;3.25;3.15;;;;;;;8.18;82.18;98656.63;6029065;23;20179;-72
2024/01/01 01:22:36;;;;;;;3.67;3.47;;;;;;;8.29;82.03;98669.69;6057577;23;20075;-71
2024/01/01 01:25:03;;;;;;;5.00;4.63;;;;;;;8.23;82.83;98671.94;6044156;23;20387;-70
2024/01/01 01:27:29;;;;;;;4.07;3.78;;;;;;;7.93;81.94;98624.47;6054907;23;20085;-73
2024/01/01 01:29:56;;;;;;;4.22;4.03;;;;;;;8.29;81.00;98635.72;6014167;23;20018;-72
2024/01/01 01:32:22;;;;;;;3.75;3.50;;;;;;;7.82;80.50;98524.38;6055232;23;20050;-73
2024/01/01 01:34:49;;;;;;;3.90;3.60;;;;;;;8.37;80.21;98581.09;6043310;23;20042;-72
2024/01/01 01:37:16;;;;;;;3.95;3.67;;;;;;;8.35;79.92;98587.38;6060466;23;20186;-73
2024/01/01 01:39:42;;;;;;;4.05;3.75;;;;;;;8.19;80.33;98590.34;6061974;23;20030;-72
2024/01/01 01:42:09;;;;;;;10.02;3.47;;;;;;;8.19;80.15;98604.22;6026948;23;20561;-72
2024/01/01 01:44:36;;;;;;;3.58;3.42;;;;;;;8.32;80.31;98638.13;6035317;23;20029;-72
2024/01/01 01:47:03;;;;;;;5.43;4.55;;;;;;;8.12;80.96;98604.84;6007094;23;20490;-71
2024/01/01 01:49:31;;;;;;;4.70;3.60;;;;;;;8.13;80.68;98611.72;6052168;23;20030;-72
2024/01/01 01:52:01;;;;;;;3.40;3.25;;;;;;;8.27;80.99;98639.41;6046647;23;20039;-73
2024/01/01 01:54:29;;;;;;;3.60;3.50;;;;;;;8.25;82.02;98678.72;6051070;23;20088;-71
2024/01/01 01:56:56;;;;;;;7.30;4.13;;;;;;;7.68;83.04;98627.25;6053999;23;20026;-71
2024/01/01 01:59:22;;;;;;;3.30;3.20;;;;;;;8.29;81.67;98689.78;6044785;23;20051;-73
2024/01/01 02:01:49;;;;;;;3.60;3.40;;;;;;;8.28;81.72;98688.09;6025332;23;20081;-73
2024/01/01 02:04:16;;;;;;;4.80;4.40;;;;;;;8.30;83.25;98707.09;6036730;23;20015;-71
2024/01/01 02:06:45;;;;;;;4.55;4.20;;;;;;;7.30;85.05;98651.75;6065289;23;20071;-71
2024/01/01 02:09:11;;;;;;;5.10;4.70;;;;;;;8.13;90.95;98977.47;6045589;23;20038;-72
2024/01/01 02:11:38;;;;;;;3.67;3.58;;;;;;;7.98;94.44;99015.97;6045728;23;20030;-72
2024/01/01 02:14:16;;;;;;;3.95;3.75;;;;;;;7.47;100.00;99094.22;6050180;23;20042;-72
2024/01/01 02:16:44;;;;;;;4.05;3.85;;;;;;;6.38;100.00;99014.16;6059334;23;20006;-71
2024/01/01 02:19:22;;;;;;;6.40;5.32;;;;;;;7.39;100.00;99270.41;6013426;23;20151;-72
2024/01/01 02:21:50;;;;;;;11.55;4.72;;;;;;;6.72;100.00;99191.91;6060090;23;20022;-72
2024/01/01 02:24:17;;;;;;;4.43;3.90;;;;;;;6.47;100.00;99181.28;6061448;23;20054;-71
2024/01/01 02:26:45;;;;;;;5.10;4.30;;;;;;;6.88;100.00;99271.84;6034801;23;20029;-71
2024/01/01 02:29:12;;;;;;;5.97;5.57;;;;;;;7.04;100.00;99322.16;6062964;23;20014;-73
2024/01/01 02:31:39;;;;;;;4.78;4.30;;;;;;;6.77;100.00;99315.00;6036792;23;20026;-73
2024/01/01 02:34:06;;;;;;;5.05;4.65;;;;;;;6.76;100.00;99326.38;6064981;23;20022;-73
2024/01/01 02:36:38;;;;;;;4.10;3.90;;;;;;;6.15;100.00;99217.88;6057715;23;20030;-72
2024/01/01 02:39:06;;;;;;;;;;;;;;;5.62;100.00;99141.88;6034685;23;20228;-72
2024/01/01 02:41:33;;;;;;;3.78;3.58;;;;;;;6.84;100.00;99332.94;6059861;23;19941;-71
2024/01/01 02:44:00;;;;;;;10.57;4.32;;;;;;;6.80;100.00;99332.25;6061316;23;20054;-73
2024/01/01 02:46:26;;;;;;;4.25;3.95;;;;;;;6.31;100.00;99275.13;6057658;23;20269;-71
2024/01/01 02:48:53;;;;;;;4.25;3.88;;;;;;;6.57;100.00;99344.00;6040471;23;20070;-72
2024/01/01 02:51:20;;;;;;;14.05;3.88;;;;;;;6.40;100.00;99321.53;6037926;23;20022;-71
2024/01/01 02:53:46;;;;;;;3.20;3.10;;;;;;;5.57;100.00;99193.34;6035266;23;20038;-70
2024/01/01 02:56:20;;;;;;;3.28;3.10;;;;;;;6.73;100.00;99381.28;6033574;23;20234;-72
2024/01/01 02:58:47;;;;;;;3.42;3.33;;;;;;;6.72;100.00;99378.81;6051766;23;20034;-72
2024/01/01 03:01:18;;;;;;;3.80;3.70;;;;;;;6.73;100.00;99380.47;6012426;23;20035;-74
2024/01/01 03:03:44;;;;;;;5.40;3.92;;;;;;;6.30;100.00;99263.88;6057208;23;20245;-73
2024/01/01 03:06:11;;;;;;;3.33;3.22;;;;;;;6.83;100.00;99342.50;6014817;23;20029;-72
2024/01/01 03:08:38;;;;;;;4.60;4.20;;;;;;;6.85;100.00;99334.59;6046892;23;20537;-73
2024/01/01 03:11:05;;;;;;;5.55;5.25;;;;;;;6.66;100.00;99304.38;6028521;23;20015;-74
2024/01/01 03:13:32;;;;;;;4.60;3.90;;;;;;;6.76;100.00;99315.94;6023522;23;20034;-70
2024/01/01 03:15:59;;;;;;;3.22;3.13;;;;;;;6.88;100.00;99313.56;5978726;23;20019;-73
2024/01/01 03:18:26;;;;;;;4.25;4.05;;;;;;;6.81;100.00;99302.63;6020842;23;20525;-72
2024/01/01 03:20:52;;;;;;;9.60;3.78;;;;;;;6.70;100.00;99281.59;6020600;23;20025;-72
2024/01/01 03:23:19;;;;;;;8.13;3.55;;;;;;;6.51;100.00;99247.94;5996759;23;20301;-71
2024/01/01 03:25:46;;;;;;;3.47;3.30;;;;;;;6.70;100.00;99282.41;6019095;23;20010;-73
2024/01/01 03:28:13;;;;;;;7.32;3.83;;;;;;;6.51;100.00;99248.75;6031326;23;20110;-72
2024/01/01 03:30:39;;;;;;;5.10;4.70;;;;;;;6.98;100.00;99292.03;6022786;23;20175;-71
2024/01/01 03:33:06;;;;;;;5.05;4.55;;;;;;;6.92;100.00;99265.50;5995297;23;20458;-75
2024/01/01 03:35:32;;;;;;;10.73;4.13;;;;;;;6.71;100.00;99231.94;6024815;23;20031;-70
2024/01/01 03:37:59;;;;;;;3.42;3.30;;;;;;;6.91;100.00;99248.16;6030332;23;20015;-71
2024/01/01 03:40:25;;;;;;;3.25;3.15;;;;;;;6.82;100.00;99217.44;6000907;23;20428;-73
2024/01/01 03:42:52;;;;;;;3.45;3.35;;;;;;;6.71;100.00;99182.41;6031510;23;20089;-72
2024/01/01 03:45:19;;;;;;;5.88;3.70;;;;;;;6.67;100.00;99167.06;6026660;23;20050;-72
2024/01/01 03:47:46;;;;;;;3.70;3.50;;;;;;;6.95;100.00;99224.41;5978160;23;20262;-72
2024/01/01 03:50:14;;;;;;;6.80;3.75;;;;;;;6.75;100.00;99189.09;6009388;23;20044;-73
2024/01/01 03:52:41;;;;;;;6.68;4.68;;;;;;;6.49;100.00;99146.38;6018013;23;20111;-71
2024/01/01 03:55:08;;;;;;;4.57;4.38;;;;;;;6.86;100.00;99204.13;6026013;23;20239;-72
2024/01/01 03:57:35;;;;;;;3.88;3.63;;;;;;;6.70;100.00;99166.88;6020394;23;20026;-72
2024/01/01 04:00:03;;;;;;;3.53;3.40;;;;;;;7.06;100.00;99199.47;5994305;23;20034;-73
2024/01/01 04:02:38;;;;;;;3.77;3.53;;;;;;;7.10;100.00;99151.38;6031198;23;20022;-72
2024/01/01 04:05:06;;;;;;;5.38;4.93;;;;;;;6.69;100.00;99082.59;5952751;23;20347;-72
2024/01/01 04:07:34;;;;;;;5.78;3.65;;;;;;;6.65;100.00;99064.66;6017293;23;20030;-72
2024/01/01 04:10:03;;;;;;;4.03;3.55;;;;;;;7.27;100.00;99119.00;5996170;23;20322;-71
2024/01/01 04:12:29;;;;;;;3.80;3.60;;;;;;;7.22;100.00;99080.16;6036345;23;20219;-71
2024/01/01 04:14:55;;;;;;;5.65;3.60;;;;;;;7.15;100.00;99066.66;6029329;23;20451;-72
2024/01/01 04:17:22;;;;;;;3.30;3.20;;;;;;;7.24;100.00;99059.19;6019132;23;20098;-73
2024/01/01 04:19:48;;;;;;;11.32;5.38;;;;;;;7.28;100.00;99043.22;6025017;23;20033;-73
2024/01/01 04:22:16;;;;;;;7.38;3.47;;;;;;;7.32;100.00;99007.34;6018060;23;20039;-73
2024/01/01 04:24:43;;;;;;;3.60;3.30;;;;;;;7.27;100.00;98972.88;6016237;23;20027;-70
2024/01/01 04:27:09;;;;;;;5.57;5.18;;;;;;;6.83;100.00;98908.81;6009167;23;20285;-71
2024/01/01 04:29:36;;;;;;;3.60;3.40;;;;;;;7.26;100.00;98959.00;6030121;23;20038;-71
2024/01/01 04:32:03;;;;;;;3.70;3.50;;;;;;;7.29;100.00;98948.34;6034996;23;20272;-72
2024/01/01 04:34:30;;;;;;;3.63;3.47;;;;;;;7.11;100.00;98911.28;6030221;23;20031;-71
2024/01/01 04:36:56;;;;;;;10.77;4.60;;;;;;;7.12;100.00;98902.53;6029879;23;20019;-72
2024/01/01 04:39:23;;;;;;;3.83;3.63;;;;;;;7.39;100.00;98896.38;6010633;23;20081;-71
2024/01/01 04:41:50;;;;;;;3.30;3.20;;;;;;;6.30;100.00;98724.63;6031057;23;20402;-72
2024/01/01 04:44:17;;;;;;;3.60;3.47;;;;;;;6.85;100.00;98832.16;6012839;23;20101;-72
2024/01/01 04:46:43;;;;;;;3.50;3.35;;;;;;;6.90;100.00;98865.78;6026567;23;20050;-72
2024/01/01 04:49:10;;;;;;;5.03;4.75;;;;;;;6.17;100.00;98753.25;6029105;23;20477;-73
2024/01/01 04:51:36;;;;;;;3.90;3.75;;;;;;;7.24;100.00;98900.88;6024238;23;20247;-72
2024/01/01 04:54:03;;;;;;;3.67;3.38;;;;;;;7.22;100.00;98874.03;6031477;23;20038;-72
2024/01/01 04:56:29;;;;;;;3.45;3.33;;;;;;;7.34;100.00;98859.34;6029194;23;20073;-72
2024/01/01 04:58:57;;;;;;;4.35;3.92;;;;;;;5.88;100.00;98655.34;6003371;23;20073;-72
2024/01/01 05:01:26;;;;;;;4.88;3.53;;;;;;;7.18;100.00;98876.03;6027749;23;20046;-73
2024/01/01 05:03:52;;;;;;;5.22;3.70;;;;;;;7.18;100.00;98894.28;6025575;23;20106;-72
2024/01/01 05:06:19;;;;;;;4.05;3.75;;;;;;;6.48;100.00;98799.91;6007142;23;20030;-71
2024/01/01 05:08:47;;;;;;;5.53;3.92;;;;;;;7.22;100.00;98921.00;6028321;23;20042;-72
2024/01/01 05:11:13;;;;;;;12.80;4.68;;;;;;;7.28;100.00;98912.78;6013159;23;20165;-72
2024/01/01 05:13:40;;;;;;;12.27;3.88;;;;;;;7.35;100.00;98879.25;5984018;23;20051;-71
2024/01/01 05:16:09;;;;;;;6.68;3.92;;;;;;;7.28;100.00;98880.63;6030457;23;20427;-73
2024/01/01 05:18:38;;;;;;;3.92;3.72;;;;;;;7.33;100.00;98895.00;6002869;23;20018;-72
2024/01/01 05:21:05;;;;;;;5.57;5.28;;;;;;;7.31;100.00;98864.75;6026079;23;20370;-71
2024/01/01 05:23:31;;;;;;;3.80;3.60;;;;;;;7.09;100.00;98865.38;6027861;23;20027;-72
2024/01/01 05:25:58;;;;;;;3.92;3.72;;;;;;;6.90;100.00;98840.53;6025716;23;20021;-73
2024/01/01 05:28:24;;;;;;;3.83;3.63;;;;;;;6.57;100.00;98787.09;6028564;23;20517;-72
2024/01/01 05:30:51;;;;;;;3.45;3.35;;;;;;;6.87;100.00;98848.53;6027762;23;20026;-72
2024/01/01 05:33:18;;;;;;;3.65;3.45;;;;;;;7.26;100.00;98909.44;6000594;23;20033;-72
2024/01/01 05:35:44;;;;;;;3.75;3.33;;;;;;;6.75;100.00;98841.53;6006617;23;20084;-72
2024/01/01 05:38:11;;;;;;;3.90;3.67;;;;;;;7.26;100.00;98924.25;6028358;23;20091;-70
2024/01/01 05:40:42;;;;;;;6.45;3.75;;;;;;;7.29;100.00;98911.81;6030036;23;20503;-73
2024/01/01 05:43:09;;;;;;;4.85;4.65;;;;;;;7.32;100.00;98913.41;6023340;23;20058;-71
2024/01/01 05:45:35;;;;;;;3.33;3.20;;;;;;;7.21;100.00;98895.84;5985946;23;20161;-73
2024/01/01 05:48:01;;;;;;;3.30;3.20;;;;;;;7.06;100.00;98855.97;6007153;23;20093;-73
2024/01/01 05:50:30;;;;;;;4.00;3.80;;;;;;;7.32;100.00;98901.19;6011951;23;20086;-71
2024/01/01 05:52:58;;;;;;;3.60;3.47;;;;;;;7.30;100.00;98926.53;6024065;23;20481;-71
2024/01/01 05:55:25;;;;;;;3.70;3.55;;;;;;;7.47;100.00;98920.19;6002482;23;20025;-73
2024/01/01 05:57:51;;;;;;;6.15;3.80;;;;;;;7.10;100.00;98847.00;6030805;23;20046;-72
2024/01/01 06:00:21;;;;;;;4.95;3.72;;;;;;;7.46;100.00;98913.31;6028227;23;20037;-71
2024/01/01 06:02:47;;;;;;;4.30;4.00;;;;;;;7.25;100.00;98828.63;6028596;23;20089;-71
2024/01/01 06:05:14;;;;;;;4.60;4.40;;;;;;;7.31;100.00;98888.22;6004077;23;20370;-73
2024/01/01 06:07:41;;;;;;;4.78;3.58;;;;;;;7.46;100.00;98917.69;6006096;23;20013;-73
2024/01/01 06:10:08;;;;;;;3.45;3.30;;;;;;;7.17;100.00;98853.47;6042118;23;20018;-71
2024/01/01 06:12:34;;;;;;;6.05;3.70;;;;;;;7.45;100.00;98909.00;6018538;23;20187;-73
2024/01/01 06:15:01;;;;;;;4.88;4.57;;;;;;;7.12;100.00;98876.44;6058236;23;20013;-73
2024/01/01 06:17:28;;;;;;;4.25;3.55;;;;;;;6.88;100.00;98875.47;6029876;23;20026;-73
2024/01/01 06:19:56;;;;;;;4.90;3.90;;;;;;;7.34;100.00;98974.97;6032413;23;20466;-72
2024/01/01 06:22:23;;;;;;;4.03;3.83;;;;;;;7.22;100.00;98999.28;6052621;23;20415;-72
2024/01/01 06:24:50;;;;;;;4.07;3.72;;;;;;;7.15;100.00;98966.69;6023339;23;20098;-73
2024/01/01 06:27:16;;;;;;;4.28;3.97;;;;;;;6.93;100.00;98962.88;6056200;23;20067;-70
2024/01/01 06:29:43;;;;;;;3.50;3.35;;;;;;;7.27;100.00;99041.53;6055346;23;20068;-72
2024/01/01 06:32:11;;;;;;;3.80;3.60;;;;;;;7.28;100.00;99064.09;6062134;23;20085;-72
2024/01/01 06:34:38;;;;;;;5.65;3.10;;;;;;;7.32;100.00;99076.00;6042972;23;20038;-74
2024/01/01 06:37:04;;;;;;;18.98;4.68;;;;;;;7.31;100.00;99084.75;6056428;23;20022;-71
2024/01/01 06:39:31;;;;;;;5.13;4.03;;;;;;;7.26;100.00;99115.56;6058478;23;20489;-71
2024/01/01 06:41:57;;;;;;;3.65;3.45;;;;;;;7.34;100.00;99156.81;6061190;23;20065;-73
2024/01/01 06:44:25;;;;;;;4.57;3.78;;;;;;;7.14;100.00;99106.72;6062887;23;20520;-69
2024/01/01 06:46:52;;;;;;;3.92;3.70;;;;;;;7.19;100.00;99149.00;6063037;23;20222;-71
2024/01/01 06:49:19;;;;;;;3.78;3.55;;;;;;;7.12;100.00;99133.88;6059231;23;20263;-72
2024/01/01 06:51:51;;;;;;;7.07;4.22;;;;;;;6.44;100.00;99018.16;6035662;23;20026;-73
2024/01/01 06:54:18;;;;;;;;;;;;;;;7.15;100.00;99131.88;6060756;23;20567;-72
2024/01/01 06:56:44;;;;;;;9.48;4.15;;;;;;;6.79;100.00;99082.88;6060087;23;19996;-73
2024/01/01 06:59:13;;;;;;;6.38;5.97;;;;;;;7.11;100.00;99129.56;6058194;23;20056;-72
2024/01/01 07:01:41;;;;;;;3.83;3.63;;;;;;;7.17;100.00;99170.91;6051142;23;20458;-71
2024/01/01 07:04:08;;;;;;;3.80;3.50;;;;;;;7.13;100.00;99185.91;6055208;23;20034;-71
2024/01/01 07:06:34;;;;;;;3.40;3.30;;;;;;;6.81;100.00;99168.81;6035839;23;20024;-71
2024/01/01 07:09:01;;;;;;;5.10;4.80;;;;;;;7.08;100.00;99215.84;6057957;23;20018;-72
2024/01/01 07:11:28;;;;;;;3.53;3.33;;;;;;;6.58;100.00;99164.06;6030298;23;20030;-74
2024/01/01 07:13:54;;;;;;;4.13;3.80;;;;;;;7.15;100.00;99248.44;6060665;23;20540;-72
2024/01/01 07:16:21;;;;;;;3.33;3.22;;;;;;;6.63;100.00;99171.59;6024788;23;20552;-71
2024/01/01 07:18:47;;;;;;;4.20;3.90;;;;;;;7.02;100.00;99222.28;6045663;23;20087;-71
2024/01/01 07:21:14;;;;;;;4.75;4.45;;;;;;;7.17;100.00;99257.84;6049514;23;20104;-71
2024/01/01 07:23:40;;;;;;;4.38;4.13;;;;;;;7.11;100.00;99250.38;6041419;23;20102;-72
2024/01/01 07:26:07;;;;;;;6.88;3.72;;;;;;;7.12;100.00;99272.97;6057420;23;20018;-72
2024/01/01 07:28:33;;;;;;;3.85;3.65;;;;;;;7.09;100.00;99288.78;6040913;23;20504;-71
2024/01/01 07:31:00;;;;;;;7.53;4.47;;;;;;;7.09;100.00;99322.69;5997214;23;20030;-71
2024/01/01 07:33:26;;;;;;;3.33;3.22;;;;;;;7.10;100.00;99297.47;6058644;23;20049;-71
2024/01/01 07:35:53;;;;;;;3.10;3.00;;;;;;;7.06;100.00;99255.06;6058322;23;20058;-72
2024/01/01 07:38:19;;;;;;;4.10;3.70;;;;;;;7.08;100.00;99252.38;6045171;23;20050;-70
2024/01/01 07:40:46;;;;;;;8.43;4.03;;;;;;;6.78;100.00;99229.81;6005861;23;20031;-70
2024/01/01 07:43:12;;;;;;;4.28;4.07;;;;;;;7.07;100.00;99266.34;6054955;23;20038;-72
2024/01/01 07:45:39;;;;;;;3.97;3.67;;;;;;;6.27;100.00;99135.56;6063110;23;20042;-72
2024/01/01 07:48:06;;;;;;;3.22;3.13;;;;;;;6.99;100.00;99311.97;6031957;23;20294;-75
2024/01/01 07:50:36;;;;;;;3.50;3.30;;;;;;;6.87;100.00;99289.22;6040576;23;20266;-72
2024/01/01 07:53:06;;;;;;;4.63;4.43;;;;;;;7.06;100.00;99314.22;6061000;23;20425;-70
2024/01/01 07:55:32;;;;;;;5.05;3.65;;;;;;;6.97;100.00;99307.78;6052221;23;20367;-72
2024/01/01 07:57:59;;;;;;;3.67;3.47;;;;;;;6.87;100.00;99273.59;6025494;23;20114;-73
2024/01/01 08:00:26;;;;;;;3.90;3.50;;;;;;;6.98;100.00;99294.66;6044560;23;20026;-72
2024/01/01 08:02:52;;;;;;;3.30;3.20;;;;;;;6.96;100.00;99277.44;6029965;23;20158;-73
2024/01/01 08:05:19;;;;;;;3.35;3.25;;;;;;;7.01;100.00;99305.84;6054888;23;20030;-72
2024/01/01 08:07:47;;;;;;;3.28;3.17;;;;;;;6.62;100.00;99247.31;6052268;23;20584;-74
2024/01/01 08:10:15;;;;;;;3.20;3.10;;;;;;;6.91;100.00;99322.00;6039872;23;20021;-73
2024/01/01 08:12:42;;;;;;;3.30;3.20;;;;;;;6.70;100.00;99297.22;6055937;23;20066;-72
2024/01/01 08:15:08;;;;;;;4.43;4.22;;;;;;;6.97;100.00;99344.28;6053866;23;20105;-72
2024/01/01 08:17:36;;;;;;;3.30;3.20;;;;;;;6.88;100.00;99348.28;6040459;23;20465;-71
2024/01/01 08:20:02;;;;;;;3.30;3.20;;;;;;;6.82;100.00;99373.91;6032564;23;20031;-73
2024/01/01 08:22:29;;;;;;;3.13;3.03;;;;;;;6.86;100.00;99381.44;6069337;23;20034;-75
2024/01/01 08:24:56;;;;;;;3.22;3.13;;;;;;;5.86;100.00;99209.94;6014937;23;20228;-72
2024/01/01 08:27:22;;;;;;;9.18;3.60;;;;;;;6.90;100.00;99356.03;6031910;23;20018;-73
2024/01/01 08:29:49;;;;;;;3.13;3.03;;;;;;;5.78;100.00;99192.16;6024669;23;20029;-73
2024/01/01 08:32:15;;;;;;;3.30;3.20;;;;;;;6.92;100.00;99365.44;6058890;23;20924;-71
2024/01/01 08:34:42;;;;;;;3.13;3.03;;;;;;;6.62;100.00;99326.34;6061836;23;20078;-74
2024/01/01 08:37:09;;;;;;;8.20;5.50;;;;;;;6.50;100.00;99293.19;6056763;23;20027;-72
2024/01/01 08:39:36;;;;;;;5.05;4.68;;;;;;;6.91;100.00;99337.66;6058607;23;20086;-74
2024/01/01 08:42:04;;;;;;;3.22;3.13;;;;;;;6.99;100.00;99356.31;6060674;23;20015;-74
2024/01/01 08:44:30;;;;;;;3.13;3.03;;;;;;;6.86;100.00;99328.47;6057898;23;20019;-73
2024/01/01 08:46:57;;;;;;;8.45;3.65;;;;;;;6.60;100.00;99296.91;6059121;23;20115;-72
2024/01/01 08:49:26;;;;;;;3.10;3.00;;;;;;;6.99;100.00;99363.28;6057110;23;20080;-72
2024/01/01 08:51:53;;;;;;;3.28;3.17;;;;;;;5.98;100.00;99204.06;6058980;23;20519;-72
2024/01/01 08:54:19;;;;;;;4.32;4.13;;;;;;;6.91;100.00;99348.09;6047714;23;20022;-73
2024/01/01 08:56:45;;;;;;;3.92;3.72;;;;;;;7.10;100.00;99371.34;6031529;23;20026;-72
2024/01/01 08:59:13;;;;;;;4.45;4.25;;;;;;;6.78;100.00;99292.41;6057230;23;20097;-72
2024/01/01 09:01:43;;;;;;;3.83;3.63;;;;;;;6.96;100.00;99316.53;6058999;23;20030;-73
2024/01/01 09:04:10;;;;;;;3.75;3.40;;;;;;;6.86;100.00;99268.47;6038942;23;20041;-74
2024/01/01 09:06:36;;;;;;;3.80;3.50;;;;;;;7.12;100.00;99325.13;6057772;23;20028;-73
2024/01/01 09:09:05;;;;;;;4.28;4.07;;;;;;;6.73;100.00;99230.06;6053071;23;20030;-73
2024/01/01 09:11:31;;;;;;;3.92;3.72;;;;;;;7.32;100.00;99329.16;6053082;23;20052;-73
2024/01/01 09:13:58;;;;;;;3.80;3.60;;;;;;;7.32;100.00;99304.81;6057172;23;20363;-74
2024/01/01 09:16:29;;;;;;;3.30;3.20;;;;;;;6.23;100.00;99132.31;6043385;23;20054;-73
2024/01/01 09:19:02;;;;;;;3.47;3.38;;;;;;;6.82;100.00;99233.09;6034316;23;20034;-72
2024/01/01 09:21:29;;;;;;;3.40;3.20;;;;;;;7.33;100.00;99316.94;6049440;23;20030;-73
2024/01/01 09:24:00;;;;;;;4.38;3.60;;;;;;;6.82;100.00;99290.47;6060004;23;20123;-72
2024/01/01 09:26:31;;;;;;;;;;;;;;;7.29;100.00;99326.72;6060180;23;20030;-73
2024/01/01 09:29:01;;;;;;;4.50;4.30;;;;;;;6.93;100.00;99290.63;6053871;23;20329;-73
2024/01/01 09:31:31;;;;;;;7.88;3.75;;;;;;;7.26;100.00;99381.72;6049823;23;20526;-72
2024/01/01 09:34:00;;;;;;;3.72;3.58;;;;;;;7.11;100.00;99390.44;6037631;23;20085;-73
2024/01/01 09:36:29;;;;;;;3.30;3.20;;;;;;;6.96;100.00;99376.53;6045163;23;20174;-72
2024/01/01 09:38:56;;;;;;;3.50;3.40;;;;;;;6.31;100.00;99299.41;6015059;23;20046;-73
2024/01/01 09:41:25;;;;;;;3.30;3.20;;;;;;;7.00;100.00;99401.50;6058806;23;20042;-72
2024/01/01 09:43:53;;;;;;;6.85;3.60;;;;;;;6.83;100.00;99373.78;6024520;23;20003;-71
2024/01/01 09:46:20;;;;;;;4.80;3.90;;;;;;;7.18;100.00;99442.16;6032133;23;20089;-73
2024/01/01 09:48:47;;;;;;;3.30;3.20;;;;;;;6.83;100.00;99375.56;6043423;23;20117;-72
2024/01/01 09:51:13;;;;;;;4.47;4.18;;;;;;;7.29;100.00;99472.00;6053227;23;20227;-73
2024/01/01 09:53:43;;;;;;;4.25;3.45;;;;;;;6.60;100.00;99364.69;6056220;23;20021;-73
2024/01/01 09:56:09;;;;;;;3.58;3.47;;;;;;;7.19;100.00;99475.16;6019485;23;20645;-72
2024/01/01 09:58:41;;;;;;;3.65;3.45;;;;;;;7.31;100.00;99486.66;6036481;23;20098;-73
2024/01/01 10:01:10;;;;;;;4.70;4.50;;;;;;;7.33;100.00;99499.63;6041798;23;20457;-72
2024/01/01 10:03:37;;;;;;;3.50;3.40;;;;;;;7.45;100.00;99516.34;6038708;23;20089;-72
2024/01/01 10:06:08;;;;;;;3.75;3.50;;;;;;;7.46;100.00;99489.31;6047390;23;20354;-71
2024/01/01 10:08:36;;;;;;;3.30;3.20;;;;;;;7.10;100.00;99422.69;6040061;23;20026;-73
2024/01/01 10:11:16;;;;;;;5.03;4.72;;;;;;;7.49;100.00;99489.94;6026171;23;20371;-73
2024/01/01 10:13:43;;;;;;;3.20;3.10;;;;;;;7.49;100.00;99452.56;6047272;23;20022;-73
2024/01/01 10:16:10;;;;;;;3.65;3.45;;;;;;;7.49;100.00;99426.47;6045188;23;20347;-73
2024/01/01 10:18:36;;;;;;;3.85;3.65;;;;;;;7.64;100.00;99453.41;6043863;23;20246;-73
2024/01/01 10:21:13;;;;;;;4.53;4.32;;;;;;;6.52;100.00;99275.69;6013246;23;20039;-73
2024/01/01 10:23:41;;;;;;;6.25;3.40;;;;;;;7.10;100.00;99352.25;6021513;23;20026;-73
2024/01/01 10:26:12;;;;;;;4.55;4.03;;;;;;;7.38;100.00;99411.47;6043123;23;20050;-75
2024/01/01 10:28:41;;;;;;;3.50;3.40;;;;;;;7.38;100.00;99435.78;6042480;23;20030;-74
2024/01/01 10:31:12;;;;;;;5.05;4.65;;;;;;;6.87;100.00;99338.78;6005983;23;20022;-74
2024/01/01 10:33:40;;;;;;;3.70;3.50;;;;;;;7.62;100.00;99447.44;6037038;23;20089;-74
2024/01/01 10:36:07;;;;;;;3.92;3.65;;;;;;;7.18;100.00;99387.38;6036359;23;20521;-72
2024/01/01 10:38:36;;;;;;;3.47;3.38;;;;;;;7.33;100.00;99400.44;6012456;23;20274;-73
2024/01/01 10:41:05;;;;;;;5.95;5.55;;;;;;;7.69;100.00;99422.66;6030795;23;20386;-73
2024/01/01 10:43:33;;;;;;;5.35;3.60;;;;;;;7.90;100.00;99442.25;6042087;23;20026;-73
2024/01/01 10:46:04;;;;;;;3.85;3.65;;;;;;;7.27;100.00;99318.13;6042221;23;20023;-73
2024/01/01 10:48:32;;;;;;;3.50;3.40;;;;;;;8.22;100.00;99418.50;6015741;23;20406;-72
2024/01/01 10:51:11;;;;;;;4.97;4.65;;;;;;;8.57;100.00;99407.59;6041010;23;20363;-72
2024/01/01 10:54:01;;;;;;;3.58;3.38;;;;;;;8.49;100.00;99345.34;6046245;23;20037;-72
2024/01/01 10:56:53;;;;;;;6.47;3.72;;;;;;;8.15;100.00;99244.75;6021518;23;20093;-71
2024/01/01 10:59:23;;;;;;;3.90;3.70;;;;;;;8.73;100.00;99298.41;6017800;23;20046;-72
2024/01/01 11:01:52;;;;;;;4.72;4.38;;;;;;;8.78;99.05;99282.44;6021300;23;20050;-71
2024/01/01 11:04:20;;;;;;;3.50;3.40;;;;;;;8.70;98.75;99275.09;6026596;23;20122;-72
2024/01/01 11:06:46;;;;;;;4.00;3.50;;;;;;;8.64;99.52;99283.38;6030232;23;20066;-73
2024/01/01 11:09:19;;;;;;;4.78;4.57;;;;;;;8.59;98.93;99261.91;6037255;23;20445;-73
2024/01/01 11:11:50;;;;;;;3.72;3.55;;;;;;;8.44;99.10;99248.09;6042287;23;20269;-73
2024/01/01 11:14:34;;;;;;;4.38;4.18;;;;;;;8.33;99.22;99237.47;6027909;23;20078;-74
2024/01/01 11:17:02;;;;;;;6.65;4.78;;;;;;;8.36;100.00;99294.78;6028165;23;20038;-71
2024/01/01 11:19:39;;;;;;;3.75;3.55;;;;;;;8.05;99.57;99209.69;6040337;23;20022;-71
2024/01/01 11:22:18;;;;;;;4.50;4.10;;;;;;;8.36;98.80;99245.94;6019983;23;20120;-71
2024/01/01 11:24:48;;;;;;;3.88;3.67;;;;;;;8.04;99.69;99241.97;6041109;23;20577;-72
2024/01/01 11:27:22;;;;;;;3.90;3.70;;;;;;;8.01;100.00;99304.91;6038609;23;20101;-71
2024/01/01 11:29:49;;;;;;;5.88;3.88;;;;;;;7.90;100.00;99334.31;6034098;23;20626;-72
2024/01/01 11:32:19;;;;;;;4.20;3.78;;;;;;;7.79;100.00;99316.69;6041950;23;20022;-72
2024/01/01 11:35:03;;;;;;;4.35;3.65;;;;;;;7.62;100.00;99329.94;6020432;23;20303;-71
2024/01/01 11:37:30;;;;;;;4.70;3.95;;;;;;;7.90;100.00;99403.06;6034722;23;20023;-71
2024/01/01 11:40:04;;;;;;;3.97;3.78;;;;;;;7.71;100.00;99400.72;6022401;23;20465;-71